Time;durP1;ratioP1;P1;durP2;ratioP2;P2;SDS_P1;SDS_P2;PMS_P1;PMS_P2;Temp;Humidity;BMP_temperature;BMP_pressure;BME280_temperature;BME280_humidity;BME280_pressure;Samples;Min_cycle;Max_cycle;Signal;HPM_P1;HPM_P2
2021/04/29 00:01:17;;;;;;;16.48;13.52;;;;;;;;;;5075791;28;20369;-87
2021/04/29 00:03:43;;;;;;;20.30;14.15;;;;;;;;;;5095262;28;20395;-84
2021/04/29 00:06:09;;;;;;;16.90;13.95;;;;;;;;;;5077053;28;20730;-83
2021/04/29 00:08:36;;;;;;;17.20;14.55;;;;;;;;;;5098687;28;20361;-88
2021/04/29 00:11:02;;;;;;;20.30;14.48;;;;;;;;;;5097573;28;20418;-88
2021/04/29 00:13:28;;;;;;;17.85;14.00;;;;;;;;;;5077272;28;20737;-83
2021/04/29 00:15:54;;;;;;;17.73;14.50;;;;;;;;;;5096081;28;20356;-86
2021/04/29 00:18:21;;;;;;;17.70;13.30;;;;;;;;;;5095668;28;20383;-83
2021/04/29 00:20:47;;;;;;;17.92;14.43;;;;;;;;;;5076499;28;20384;-85
2021/04/29 00:23:13;;;;;;;19.65;14.93;;;;;;;;;;5093912;28;20731;-85
2021/04/29 00:25:39;;;;;;;20.83;15.48;;;;;;;;;;5075910;28;20774;-84
2021/04/29 00:28:05;;;;;;;18.30;15.45;;;;;;;;;;5094029;28;20866;-85
2021/04/29 00:30:31;;;;;;;19.52;14.40;;;;;;;;;;5093515;28;20447;-85
2021/04/29 00:32:57;;;;;;;18.10;14.33;;;;;;;;;;5093260;28;20429;-84
2021/04/29 00:35:23;;;;;;;19.08;14.63;;;;;;;;;;5093563;28;20762;-86
2021/04/29 00:37:49;;;;;;;19.08;15.32;;;;;;;;;;5094121;28;20365;-88
2021/04/29 00:40:16;;;;;;;18.45;14.77;;;;;;;;;;5076133;28;20376;-87
2021/04/29 00:42:42;;;;;;;20.33;14.48;;;;;;;;;;5075789;28;20447;-86
2021/04/29 00:45:10;;;;;;;18.88;15.48;;;;;;;;;;5093670;28;20379;-87
2021/04/29 00:47:36;;;;;;;20.00;15.10;;;;;;;;;;5075588;28;20414;-86
2021/04/29 00:50:04;;;;;;;20.08;15.10;;;;;;;;;;5075286;28;20837;-85
2021/04/29 00:52:30;;;;;;;20.48;16.00;;;;;;;;;;5075456;28;20377;-88
2021/04/29 00:54:56;;;;;;;19.92;15.43;;;;;;;;;;5093294;28;20372;-87
2021/04/29 00:57:24;;;;;;;18.90;15.02;;;;;;;;;;5093391;28;20877;-84
2021/04/29 00:59:50;;;;;;;18.50;15.90;;;;;;;;;;5092914;28;20368;-85
2021/04/29 01:02:16;;;;;;;22.90;16.05;;;;;;;;;;5075200;28;20356;-84
2021/04/29 01:05:01;;;;;;;21.40;16.00;;;;;;;;;;5093117;28;20746;-86
2021/04/29 01:07:29;;;;;;;19.55;14.88;;;;;;;;;;5093196;28;20882;-90
2021/04/29 01:10:13;;;;;;;17.63;14.90;;;;;;;;;;5093350;28;20382;-87
2021/04/29 01:12:45;;;;;;;18.95;14.73;;;;;;;;;;5073493;28;20364;-86
2021/04/29 01:15:11;;;;;;;20.70;15.45;;;;;;;;;;5075188;28;20360;-86
2021/04/29 01:17:41;;;;;;;21.20;15.43;;;;;;;;;;5075244;28;20421;-86
2021/04/29 01:20:16;;;;;;;19.55;14.77;;;;;;;;;;5093001;28;20400;-84
2021/04/29 01:22:47;;;;;;;21.25;15.40;;;;;;;;;;5074278;28;21078;-85
2021/04/29 01:25:16;;;;;;;20.77;15.73;;;;;;;;;;5092923;28;20909;-87
2021/04/29 01:27:42;;;;;;;25.02;16.73;;;;;;;;;;5074712;28;20372;-84
2021/04/29 01:30:09;;;;;;;19.77;14.83;;;;;;;;;;5092657;28;20414;-86
2021/04/29 01:32:36;;;;;;;18.88;15.73;;;;;;;;;;5074375;28;20379;-87
2021/04/29 01:35:04;;;;;;;17.73;14.90;;;;;;;;;;5092780;28;20384;-89
2021/04/29 01:37:30;;;;;;;21.15;15.75;;;;;;;;;;5074754;28;20364;-85
2021/04/29 01:39:56;;;;;;;19.65;15.30;;;;;;;;;;5093294;28;20388;-85
2021/04/29 01:42:22;;;;;;;20.13;16.13;;;;;;;;;;5093591;28;20834;-82
2021/04/29 01:44:48;;;;;;;22.23;16.63;;;;;;;;;;5075488;28;20396;-87
2021/04/29 01:47:14;;;;;;;18.77;15.45;;;;;;;;;;5075317;28;20369;-88
2021/04/29 01:49:41;;;;;;;21.38;15.60;;;;;;;;;;5074858;28;20360;-86
2021/04/29 01:52:09;;;;;;;18.52;15.25;;;;;;;;;;5092657;28;20372;-87
2021/04/29 01:54:37;;;;;;;17.83;15.15;;;;;;;;;;5092934;28;20376;-88
2021/04/29 01:57:03;;;;;;;18.13;14.13;;;;;;;;;;5092775;28;20871;-84
2021/04/29 01:59:29;;;;;;;19.30;14.88;;;;;;;;;;5092728;28;20375;-85
2021/04/29 02:01:55;;;;;;;21.27;15.57;;;;;;;;;;5092285;28;20364;-83
2021/04/29 02:04:21;;;;;;;20.38;14.95;;;;;;;;;;5091736;28;21023;-85
2021/04/29 02:06:47;;;;;;;19.25;15.40;;;;;;;;;;5073880;28;20360;-84
2021/04/29 02:09:13;;;;;;;20.73;15.07;;;;;;;;;;5092168;28;20426;-84
2021/04/29 02:11:49;;;;;;;20.15;15.23;;;;;;;;;;5091787;28;20368;-86
2021/04/29 02:14:17;;;;;;;19.77;15.10;;;;;;;;;;5091807;28;20782;-86
2021/04/29 02:16:45;;;;;;;18.60;14.80;;;;;;;;;;5073846;28;20360;-87
2021/04/29 02:19:11;;;;;;;20.92;15.35;;;;;;;;;;5072693;28;20449;-86
2021/04/29 02:21:42;;;;;;;19.95;15.05;;;;;;;;;;5056604;28;20419;-88
2021/04/29 02:24:09;;;;;;;18.38;15.18;;;;;;;;;;5052959;28;20397;-88
2021/04/29 02:26:35;;;;;;;17.57;14.97;;;;;;;;;;5053296;28;20375;-85
2021/04/29 02:29:04;;;;;;;19.83;15.13;;;;;;;;;;5071182;28;20366;-86
2021/04/29 02:31:30;;;;;;;22.45;15.70;;;;;;;;;;5053018;28;20366;-85
2021/04/29 02:33:57;;;;;;;20.92;15.65;;;;;;;;;;5053857;28;20435;-86
2021/04/29 02:36:23;;;;;;;18.92;15.32;;;;;;;;;;5071479;28;20373;-88
2021/04/29 02:38:49;;;;;;;20.23;15.13;;;;;;;;;;5071472;28;20366;-85
2021/04/29 02:41:17;;;;;;;23.45;15.75;;;;;;;;;;5071761;28;20373;-87
2021/04/29 02:43:45;;;;;;;20.58;15.60;;;;;;;;;;5053085;28;20394;-87
2021/04/29 02:46:11;;;;;;;20.08;15.18;;;;;;;;;;5070935;28;20417;-87
2021/04/29 02:48:37;;;;;;;21.13;15.23;;;;;;;;;;5073697;28;20903;-85
2021/04/29 02:51:03;;;;;;;19.55;14.82;;;;;;;;;;5060599;28;20373;-86
2021/04/29 02:53:30;;;;;;;27.15;15.98;;;;;;;;;;5070770;28;20492;-86
2021/04/29 02:55:57;;;;;;;19.13;15.00;;;;;;;;;;5075292;28;20367;-84
2021/04/29 02:58:23;;;;;;;25.27;16.38;;;;;;;;;;5052477;28;20885;-83
2021/04/29 03:00:51;;;;;;;23.40;15.65;;;;;;;;;;5052848;28;20373;-83
2021/04/29 03:03:17;;;;;;;21.47;15.47;;;;;;;;;;5070367;28;20484;-84
2021/04/29 03:05:43;;;;;;;19.03;15.03;;;;;;;;;;5070857;28;20366;-86
2021/04/29 03:08:09;;;;;;;20.23;15.37;;;;;;;;;;5053098;28;20489;-87
2021/04/29 03:10:35;;;;;;;19.90;15.10;;;;;;;;;;5070783;28;20366;-83
2021/04/29 03:13:01;;;;;;;18.63;15.02;;;;;;;;;;5070443;28;20441;-83
2021/04/29 03:15:27;;;;;;;19.23;15.10;;;;;;;;;;5053014;28;20370;-86
2021/04/29 03:17:53;;;;;;;17.85;14.02;;;;;;;;;;5072071;28;20615;-86
2021/04/29 03:20:19;;;;;;;22.83;15.77;;;;;;;;;;5081337;28;20917;-86
2021/04/29 03:22:45;;;;;;;19.02;14.88;;;;;;;;;;5071472;28;20465;-89
2021/04/29 03:25:12;;;;;;;16.75;14.57;;;;;;;;;;5053298;28;20733;-86
2021/04/29 03:27:39;;;;;;;19.33;15.77;;;;;;;;;;5071040;28;20412;-82
2021/04/29 03:30:05;;;;;;;19.60;15.38;;;;;;;;;;5053314;28;20366;-87
2021/04/29 03:32:31;;;;;;;24.70;15.53;;;;;;;;;;5052907;28;20370;-83
2021/04/29 03:34:57;;;;;;;20.57;15.17;;;;;;;;;;5053774;28;20374;-83
2021/04/29 03:37:23;;;;;;;32.73;15.77;;;;;;;;;;5057129;28;20378;-86
2021/04/29 03:39:49;;;;;;;21.23;15.70;;;;;;;;;;5057211;28;20475;-84
2021/04/29 03:42:16;;;;;;;25.33;16.33;;;;;;;;;;5056631;28;20398;-86
2021/04/29 03:44:42;;;;;;;21.27;16.38;;;;;;;;;;5056333;28;20400;-85
2021/04/29 03:47:08;;;;;;;25.35;16.48;;;;;;;;;;5074393;28;20392;-88
2021/04/29 03:49:34;;;;;;;19.20;16.30;;;;;;;;;;5084132;28;20375;-84
2021/04/29 03:52:01;;;;;;;21.47;15.83;;;;;;;;;;5057025;28;20856;-87
2021/04/29 03:54:27;;;;;;;19.38;15.63;;;;;;;;;;5056534;28;20382;-85
2021/04/29 03:56:53;;;;;;;21.30;16.75;;;;;;;;;;5077666;28;20369;-85
2021/04/29 03:59:20;;;;;;;20.33;16.03;;;;;;;;;;5059893;28;20366;-86
2021/04/29 04:01:46;;;;;;;18.77;15.35;;;;;;;;;;5059131;28;20903;-87
2021/04/29 04:04:12;;;;;;;20.77;16.77;;;;;;;;;;5077019;28;21189;-83
2021/04/29 04:06:38;;;;;;;18.30;15.20;;;;;;;;;;5075402;28;20392;-86
2021/04/29 04:09:04;;;;;;;26.43;17.33;;;;;;;;;;5073779;28;20377;-84
2021/04/29 04:11:30;;;;;;;16.52;14.75;;;;;;;;;;5055825;28;20408;-83
2021/04/29 04:13:57;;;;;;;18.85;16.00;;;;;;;;;;5073408;28;20462;-85
2021/04/29 04:16:23;;;;;;;23.73;17.13;;;;;;;;;;5073541;28;20393;-85
2021/04/29 04:18:49;;;;;;;21.08;16.55;;;;;;;;;;5077192;28;20392;-84
2021/04/29 04:21:15;;;;;;;21.13;16.80;;;;;;;;;;5080766;28;20380;-84
2021/04/29 04:23:41;;;;;;;22.15;17.00;;;;;;;;;;5055476;28;20386;-87
2021/04/29 04:26:07;;;;;;;21.42;16.35;;;;;;;;;;5073496;28;20384;-88
2021/04/29 04:28:33;;;;;;;20.25;16.92;;;;;;;;;;5073598;28;20388;-84
2021/04/29 04:30:59;;;;;;;19.00;15.95;;;;;;;;;;5055792;28;20747;-85
2021/04/29 04:33:27;;;;;;;20.88;15.85;;;;;;;;;;5073633;28;20374;-87
2021/04/29 04:35:53;;;;;;;21.80;16.92;;;;;;;;;;5073864;28;20385;-87
2021/04/29 04:38:19;;;;;;;22.90;16.35;;;;;;;;;;5056028;28;20370;-86
2021/04/29 04:40:45;;;;;;;21.73;17.30;;;;;;;;;;5073486;28;20380;-86
2021/04/29 04:43:11;;;;;;;20.02;16.15;;;;;;;;;;5073531;28;20422;-87
2021/04/29 04:45:37;;;;;;;20.52;16.95;;;;;;;;;;5072681;28;20355;-85
2021/04/29 04:48:08;;;;;;;20.73;16.45;;;;;;;;;;5073221;28;20366;-88
2021/04/29 04:50:34;;;;;;;23.20;17.45;;;;;;;;;;5054816;28;20381;-86
2021/04/29 04:53:00;;;;;;;20.40;17.27;;;;;;;;;;5055311;28;20362;-84
2021/04/29 04:55:27;;;;;;;20.80;17.33;;;;;;;;;;5073700;28;20832;-86
2021/04/29 04:57:53;;;;;;;23.58;18.05;;;;;;;;;;5055332;28;20378;-85
2021/04/29 05:00:19;;;;;;;21.92;17.88;;;;;;;;;;5073353;28;20381;-86
2021/04/29 05:02:45;;;;;;;21.80;17.70;;;;;;;;;;5072928;28;20366;-86
2021/04/29 05:05:11;;;;;;;21.27;18.02;;;;;;;;;;5056123;28;20364;-84
2021/04/29 05:07:37;;;;;;;22.93;17.90;;;;;;;;;;5054942;28;20466;-82
2021/04/29 05:10:04;;;;;;;21.77;17.80;;;;;;;;;;5054958;28;20406;-85
2021/04/29 05:12:30;;;;;;;22.52;17.35;;;;;;;;;;5073356;28;20903;-85
2021/04/29 05:14:56;;;;;;;21.38;17.80;;;;;;;;;;5055378;28;20413;-85
2021/04/29 05:17:22;;;;;;;20.98;17.50;;;;;;;;;;5073189;28;20406;-83
2021/04/29 05:19:48;;;;;;;23.95;19.85;;;;;;;;;;5063545;28;20459;-85
2021/04/29 05:22:14;;;;;;;24.52;19.48;;;;;;;;;;5075375;28;20802;-87
2021/04/29 05:24:41;;;;;;;24.70;19.55;;;;;;;;;;5093098;28;20757;-85
2021/04/29 05:27:07;;;;;;;26.48;20.70;;;;;;;;;;5074867;28;21060;-85
2021/04/29 05:29:33;;;;;;;22.20;19.92;;;;;;;;;;5074544;28;20421;-85
2021/04/29 05:31:59;;;;;;;22.02;19.73;;;;;;;;;;5092589;28;20452;-86
2021/04/29 05:34:25;;;;;;;23.17;20.67;;;;;;;;;;5092667;28;20365;-85
2021/04/29 05:36:51;;;;;;;22.42;20.08;;;;;;;;;;5092231;28;20367;-83
2021/04/29 05:39:17;;;;;;;24.55;20.42;;;;;;;;;;5074320;28;20376;-84
2021/04/29 05:41:43;;;;;;;26.02;20.10;;;;;;;;;;5092067;28;20364;-86
2021/04/29 05:44:09;;;;;;;21.95;19.75;;;;;;;;;;5091573;28;20471;-84
2021/04/29 05:46:35;;;;;;;25.40;20.67;;;;;;;;;;5091968;28;20470;-86
2021/04/29 05:49:02;;;;;;;26.37;23.00;;;;;;;;;;5073986;28;20364;-83
2021/04/29 05:51:28;;;;;;;25.35;22.73;;;;;;;;;;5092188;28;20361;-84
2021/04/29 05:53:54;;;;;;;26.23;22.90;;;;;;;;;;5092234;28;20505;-84
2021/04/29 05:56:20;;;;;;;25.95;23.25;;;;;;;;;;5092509;28;20368;-86
2021/04/29 05:58:47;;;;;;;28.33;22.48;;;;;;;;;;5091347;28;20376;-84
2021/04/29 06:01:13;;;;;;;29.20;25.30;;;;;;;;;;5091952;28;20853;-83
2021/04/29 06:03:39;;;;;;;27.45;24.55;;;;;;;;;;5073174;28;20394;-83
2021/04/29 06:06:06;;;;;;;26.75;23.60;;;;;;;;;;5072969;28;20384;-84
2021/04/29 06:08:32;;;;;;;25.40;22.73;;;;;;;;;;5073105;28;20360;-85
2021/04/29 06:10:58;;;;;;;26.08;22.55;;;;;;;;;;5073179;28;20942;-85
2021/04/29 06:13:24;;;;;;;24.55;22.05;;;;;;;;;;5091111;28;20443;-82
2021/04/29 06:15:50;;;;;;;26.13;23.58;;;;;;;;;;5091437;28;20700;-83
2021/04/29 06:18:16;;;;;;;25.73;22.75;;;;;;;;;;5091538;28;20417;-87
2021/04/29 06:20:42;;;;;;;26.60;23.80;;;;;;;;;;5091064;28;20380;-84
2021/04/29 06:23:08;;;;;;;27.90;24.30;;;;;;;;;;5091418;28;20398;-86
2021/04/29 06:25:34;;;;;;;27.50;24.67;;;;;;;;;;5073125;28;20372;-86
2021/04/29 06:28:00;;;;;;;27.27;24.38;;;;;;;;;;5073048;28;20369;-86
2021/04/29 06:30:26;;;;;;;27.95;24.98;;;;;;;;;;5091409;28;20489;-83
2021/04/29 06:32:52;;;;;;;30.20;27.02;;;;;;;;;;5091480;28;20421;-86
2021/04/29 06:35:18;;;;;;;27.60;24.60;;;;;;;;;;5091168;28;20352;-85
2021/04/29 06:37:44;;;;;;;28.23;25.33;;;;;;;;;;5073632;28;20455;-86
2021/04/29 06:40:12;;;;;;;29.67;26.52;;;;;;;;;;5090944;28;20386;-85
2021/04/29 06:42:39;;;;;;;29.20;26.10;;;;;;;;;;5091041;28;20371;-85
2021/04/29 06:45:05;;;;;;;28.67;25.85;;;;;;;;;;5090960;28;20363;-85
2021/04/29 06:47:33;;;;;;;29.77;26.67;;;;;;;;;;5073034;28;20360;-86
2021/04/29 06:49:59;;;;;;;30.10;27.10;;;;;;;;;;5091104;28;20364;-85
2021/04/29 06:52:25;;;;;;;29.35;26.13;;;;;;;;;;5089895;28;20406;-86
2021/04/29 06:54:52;;;;;;;30.60;27.40;;;;;;;;;;5078145;28;20372;-87
2021/04/29 06:57:18;;;;;;;28.48;25.63;;;;;;;;;;5072578;28;20372;-84
2021/04/29 06:59:44;;;;;;;31.17;27.98;;;;;;;;;;5090981;28;20696;-85
2021/04/29 07:02:10;;;;;;;31.75;28.45;;;;;;;;;;5090358;28;20384;-86
2021/04/29 07:04:36;;;;;;;31.98;28.52;;;;;;;;;;5071744;28;21112;-85
2021/04/29 07:07:03;;;;;;;33.27;29.70;;;;;;;;;;5090010;28;20356;-85
2021/04/29 07:09:28;;;;;;;33.80;30.17;;;;;;;;;;5072318;28;20869;-86
2021/04/29 07:11:55;;;;;;;35.50;31.20;;;;;;;;;;5090553;28;20451;-86
2021/04/29 07:14:22;;;;;;;36.50;32.83;;;;;;;;;;5072496;28;20379;-86
2021/04/29 07:16:48;;;;;;;37.08;33.30;;;;;;;;;;5090486;28;20373;-85
2021/04/29 07:19:14;;;;;;;36.95;33.17;;;;;;;;;;5090364;28;20389;-86
2021/04/29 07:21:40;;;;;;;33.87;30.53;;;;;;;;;;5090230;28;20750;-85
2021/04/29 07:24:06;;;;;;;35.00;31.50;;;;;;;;;;5090305;28;20388;-85
2021/04/29 07:26:33;;;;;;;34.03;30.50;;;;;;;;;;5090841;28;20447;-85
2021/04/29 07:29:00;;;;;;;34.15;30.30;;;;;;;;;;5090364;28;20360;-84
2021/04/29 07:31:26;;;;;;;35.63;31.88;;;;;;;;;;5072046;28;20704;-87
2021/04/29 07:33:52;;;;;;;36.15;32.45;;;;;;;;;;5071883;28;20438;-85
2021/04/29 07:36:18;;;;;;;34.20;30.80;;;;;;;;;;5092571;28;20700;-86
2021/04/29 07:38:44;;;;;;;34.22;30.80;;;;;;;;;;5077873;28;20372;-86
2021/04/29 07:41:10;;;;;;;34.83;31.30;;;;;;;;;;5076418;28;20442;-85
2021/04/29 07:43:36;;;;;;;33.45;30.23;;;;;;;;;;5093060;28;20411;-85
2021/04/29 07:46:02;;;;;;;33.33;29.92;;;;;;;;;;5091027;28;20365;-85
2021/04/29 07:48:29;;;;;;;33.43;29.87;;;;;;;;;;5072071;28;20457;-86
2021/04/29 07:50:55;;;;;;;36.20;32.58;;;;;;;;;;5071995;28;20368;-84
2021/04/29 07:53:21;;;;;;;32.05;28.80;;;;;;;;;;5090079;28;20795;-87
2021/04/29 07:55:48;;;;;;;33.95;30.42;;;;;;;;;;5090208;28;20403;-85
2021/04/29 07:58:14;;;;;;;34.92;31.33;;;;;;;;;;5090286;28;20434;-85
2021/04/29 08:00:41;;;;;;;34.57;31.20;;;;;;;;;;5072189;28;20856;-86
2021/04/29 08:03:07;;;;;;;36.37;32.67;;;;;;;;;;5071929;28;20767;-85
2021/04/29 08:05:35;;;;;;;36.95;33.05;;;;;;;;;;5072089;28;20483;-84
2021/04/29 08:08:01;;;;;;;36.63;32.55;;;;;;;;;;5089913;28;20364;-86
2021/04/29 08:10:27;;;;;;;34.30;30.75;;;;;;;;;;5071881;28;20372;-85
2021/04/29 08:12:54;;;;;;;35.70;32.10;;;;;;;;;;5071469;28;20388;-87
2021/04/29 08:15:20;;;;;;;36.72;33.08;;;;;;;;;;5072007;28;20457;-85
2021/04/29 08:17:46;;;;;;;39.67;35.47;;;;;;;;;;5071906;28;20699;-86
2021/04/29 08:20:12;;;;;;;40.35;36.40;;;;;;;;;;5089214;28;20375;-85
2021/04/29 08:22:38;;;;;;;39.97;35.90;;;;;;;;;;5093203;28;20364;-84
2021/04/29 08:25:05;;;;;;;40.08;35.75;;;;;;;;;;5093649;28;20719;-85
2021/04/29 08:27:31;;;;;;;39.60;35.50;;;;;;;;;;5093556;28;20360;-86
2021/04/29 08:29:57;;;;;;;41.28;37.15;;;;;;;;;;5075486;28;20372;-86
2021/04/29 08:32:23;;;;;;;36.20;32.70;;;;;;;;;;5075236;28;20395;-83
2021/04/29 08:34:50;;;;;;;40.33;36.13;;;;;;;;;;5093462;28;20368;-82
2021/04/29 08:37:19;;;;;;;40.35;36.30;;;;;;;;;;5093419;28;20360;-87
2021/04/29 08:39:46;;;;;;;39.35;35.55;;;;;;;;;;5076602;28;20385;-87
2021/04/29 08:42:16;;;;;;;38.70;35.10;;;;;;;;;;5093690;28;20364;-84
2021/04/29 08:44:42;;;;;;;39.42;35.65;;;;;;;;;;5093181;28;20396;-86
2021/04/29 08:47:08;;;;;;;40.00;36.30;;;;;;;;;;5093293;28;20360;-85
2021/04/29 08:49:35;;;;;;;39.85;36.00;;;;;;;;;;5092881;28;20401;-85
2021/04/29 08:52:01;;;;;;;34.78;31.33;;;;;;;;;;5097574;28;20359;-83
2021/04/29 08:54:27;;;;;;;35.97;32.60;;;;;;;;;;5092689;28;20446;-84
2021/04/29 08:56:53;;;;;;;34.40;31.20;;;;;;;;;;5092613;28;20400;-84
2021/04/29 08:59:19;;;;;;;35.65;32.25;;;;;;;;;;5092822;28;20376;-87
2021/04/29 09:01:46;;;;;;;36.40;32.63;;;;;;;;;;5074495;28;20373;-83
2021/04/29 09:04:16;;;;;;;35.42;31.92;;;;;;;;;;5074304;28;20878;-83
2021/04/29 09:06:46;;;;;;;35.88;32.38;;;;;;;;;;5092548;28;20723;-85
2021/04/29 09:09:16;;;;;;;35.30;31.83;;;;;;;;;;5092730;28;20367;-83
2021/04/29 09:11:49;;;;;;;34.58;31.27;;;;;;;;;;5092616;28;20369;-86
2021/04/29 09:14:15;;;;;;;34.65;31.30;;;;;;;;;;5092564;28;20443;-83
2021/04/29 09:16:43;;;;;;;33.70;30.50;;;;;;;;;;5092801;28;20735;-86
2021/04/29 09:19:23;;;;;;;30.27;27.55;;;;;;;;;;5092441;28;20379;-86
2021/04/29 09:21:50;;;;;;;32.07;29.00;;;;;;;;;;5070602;28;20454;-84
2021/04/29 09:24:17;;;;;;;30.13;27.40;;;;;;;;;;5091960;28;20406;-85
2021/04/29 09:26:43;;;;;;;31.30;28.30;;;;;;;;;;5092013;28;20360;-84
2021/04/29 09:29:16;;;;;;;31.70;28.67;;;;;;;;;;5092305;28;20367;-84
2021/04/29 09:31:45;;;;;;;33.47;30.33;;;;;;;;;;5073783;28;20357;-86
2021/04/29 09:34:12;;;;;;;27.23;24.52;;;;;;;;;;5090968;28;20880;-84
2021/04/29 09:36:43;;;;;;;28.42;25.95;;;;;;;;;;5090795;28;20929;-84
2021/04/29 09:39:10;;;;;;;28.40;25.80;;;;;;;;;;5073023;28;20371;-87
2021/04/29 09:41:37;;;;;;;28.67;25.97;;;;;;;;;;5092508;28;20730;-84
2021/04/29 09:44:11;;;;;;;29.03;26.23;;;;;;;;;;5092342;28;20393;-84
2021/04/29 09:46:46;;;;;;;25.23;22.98;;;;;;;;;;5073441;28;20777;-87
2021/04/29 09:49:15;;;;;;;26.47;24.10;;;;;;;;;;5073897;28;20365;-84
2021/04/29 09:51:41;;;;;;;28.40;25.80;;;;;;;;;;5092408;28;20375;-87
2021/04/29 09:54:07;;;;;;;29.80;27.00;;;;;;;;;;5073130;28;20372;-84
2021/04/29 09:56:33;;;;;;;32.28;29.17;;;;;;;;;;5073225;28;20384;-85
2021/04/29 09:58:59;;;;;;;31.27;28.42;;;;;;;;;;5092752;28;20819;-85
2021/04/29 10:01:29;;;;;;;30.98;28.00;;;;;;;;;;5074031;28;20373;-85
2021/04/29 10:03:56;;;;;;;32.63;29.48;;;;;;;;;;5074242;28;20793;-85
2021/04/29 10:06:23;;;;;;;35.42;31.83;;;;;;;;;;5092421;28;20871;-87
2021/04/29 10:08:52;;;;;;;34.80;31.35;;;;;;;;;;5091395;28;20384;-84
2021/04/29 10:11:22;;;;;;;35.25;31.90;;;;;;;;;;5084062;28;20493;-85
2021/04/29 10:13:53;;;;;;;31.70;28.70;;;;;;;;;;5095828;28;20424;-88
2021/04/29 10:16:20;;;;;;;34.05;30.65;;;;;;;;;;5101863;28;20857;-84
2021/04/29 10:18:46;;;;;;;30.75;27.65;;;;;;;;;;5073821;28;20373;-86
2021/04/29 10:21:12;;;;;;;32.20;29.10;;;;;;;;;;5092378;28;20376;-83
2021/04/29 10:23:39;;;;;;;33.20;30.10;;;;;;;;;;5091900;28;20392;-88
2021/04/29 10:26:05;;;;;;;33.40;30.23;;;;;;;;;;5090112;28;20861;-85
2021/04/29 10:28:35;;;;;;;32.83;29.73;;;;;;;;;;5072914;28;20368;-85
2021/04/29 10:31:14;;;;;;;32.40;29.48;;;;;;;;;;5091700;28;20364;-85
2021/04/29 10:33:47;;;;;;;34.97;31.70;;;;;;;;;;5091459;28;20433;-82
2021/04/29 10:36:16;;;;;;;36.78;33.42;;;;;;;;;;5073000;28;20368;-85
2021/04/29 10:38:42;;;;;;;39.90;36.03;;;;;;;;;;5091846;28;20369;-87
2021/04/29 10:41:21;;;;;;;37.22;33.72;;;;;;;;;;5074333;28;20715;-85
2021/04/29 10:43:48;;;;;;;39.03;35.42;;;;;;;;;;5074475;28;20882;-87
2021/04/29 10:46:25;;;;;;;35.92;32.65;;;;;;;;;;5100081;28;20365;-84
2021/04/29 10:48:52;;;;;;;35.72;32.50;;;;;;;;;;5091814;28;20361;-85
2021/04/29 10:51:20;;;;;;;33.08;29.88;;;;;;;;;;5091377;28;20863;-86
2021/04/29 10:53:46;;;;;;;34.83;31.57;;;;;;;;;;5073034;28;20408;-84
2021/04/29 10:56:14;;;;;;;31.77;28.88;;;;;;;;;;5091655;28;20369;-86
2021/04/29 10:58:40;;;;;;;29.23;26.73;;;;;;;;;;5091364;28;20360;-84
2021/04/29 11:01:07;;;;;;;29.35;26.67;;;;;;;;;;5069062;28;20365;-85
2021/04/29 11:03:33;;;;;;;30.73;27.90;;;;;;;;;;5072515;28;20384;-85
2021/04/29 11:06:10;;;;;;;31.38;28.38;;;;;;;;;;5090895;28;20899;-86
2021/04/29 11:08:44;;;;;;;30.47;27.53;;;;;;;;;;5072781;28;20451;-84
2021/04/29 11:11:22;;;;;;;30.50;27.60;;;;;;;;;;5090953;28;20782;-86
2021/04/29 11:14:03;;;;;;;30.90;27.98;;;;;;;;;;5073009;28;20411;-85
2021/04/29 11:16:42;;;;;;;29.90;27.30;;;;;;;;;;5090024;28;20376;-83
2021/04/29 11:19:08;;;;;;;31.20;28.45;;;;;;;;;;5090843;28;20434;-84
2021/04/29 11:21:34;;;;;;;30.83;28.03;;;;;;;;;;5072515;28;20743;-83
2021/04/29 11:24:00;;;;;;;31.33;28.53;;;;;;;;;;5090906;28;20399;-83
2021/04/29 11:26:33;;;;;;;31.75;28.88;;;;;;;;;;5090869;28;20369;-84
2021/04/29 11:28:59;;;;;;;32.33;29.40;;;;;;;;;;5094807;28;20383;-83
2021/04/29 11:31:25;;;;;;;32.20;29.17;;;;;;;;;;5094759;28;20357;-84
2021/04/29 11:33:52;;;;;;;31.30;28.27;;;;;;;;;;5094492;28;20380;-83
2021/04/29 11:36:18;;;;;;;29.05;26.45;;;;;;;;;;5072938;28;20497;-84
2021/04/29 11:38:54;;;;;;;28.33;25.83;;;;;;;;;;5091684;28;20395;-83
2021/04/29 11:41:21;;;;;;;28.58;25.88;;;;;;;;;;5090868;28;20380;-83
2021/04/29 11:44:06;;;;;;;27.42;24.92;;;;;;;;;;5090619;28;20396;-84
2021/04/29 11:46:33;;;;;;;29.13;26.42;;;;;;;;;;5090881;28;20361;-84
2021/04/29 11:49:06;;;;;;;28.47;25.80;;;;;;;;;;5072802;28;20734;-85
2021/04/29 11:51:34;;;;;;;28.10;25.43;;;;;;;;;;5091389;28;20368;-84
2021/04/29 11:54:02;;;;;;;27.75;25.23;;;;;;;;;;5073193;28;20384;-85
2021/04/29 11:56:36;;;;;;;29.48;25.45;;;;;;;;;;5093081;28;20451;-86
2021/04/29 11:59:04;;;;;;;29.65;26.85;;;;;;;;;;5076886;28;20430;-83
2021/04/29 12:01:30;;;;;;;29.15;26.58;;;;;;;;;;5095428;28;20422;-84
2021/04/29 12:03:57;;;;;;;27.52;25.10;;;;;;;;;;5094993;28;20399;-90
2021/04/29 12:06:23;;;;;;;28.83;26.33;;;;;;;;;;5075211;28;20850;-84
2021/04/29 12:08:49;;;;;;;29.58;26.77;;;;;;;;;;5094752;28;20376;-86
2021/04/29 12:11:15;;;;;;;29.13;26.43;;;;;;;;;;5076856;28;20368;-86
2021/04/29 12:13:43;;;;;;;28.58;25.90;;;;;;;;;;5076123;28;20459;-87
2021/04/29 12:16:10;;;;;;;27.98;25.35;;;;;;;;;;5074994;28;20411;-85
2021/04/29 12:18:43;;;;;;;26.17;23.77;;;;;;;;;;5093716;28;20711;-84
2021/04/29 12:21:10;;;;;;;25.88;23.25;;;;;;;;;;5070362;28;20380;-84
2021/04/29 12:23:36;;;;;;;25.92;23.52;;;;;;;;;;5091281;28;20866;-85
2021/04/29 12:26:03;;;;;;;26.57;23.97;;;;;;;;;;5073405;28;20417;-84
2021/04/29 12:28:33;;;;;;;24.33;22.15;;;;;;;;;;5091117;28;20380;-84
2021/04/29 12:31:11;;;;;;;23.63;21.40;;;;;;;;;;5090674;28;20364;-85
2021/04/29 12:33:37;;;;;;;24.40;22.20;;;;;;;;;;5088019;28;20403;-84
2021/04/29 12:36:09;;;;;;;25.35;22.95;;;;;;;;;;5091268;28;20383;-83
2021/04/29 12:38:35;;;;;;;25.02;22.75;;;;;;;;;;5092026;28;20388;-84
2021/04/29 12:41:05;;;;;;;24.55;22.20;;;;;;;;;;5093985;28;20371;-84
2021/04/29 12:43:32;;;;;;;23.90;21.63;;;;;;;;;;5075772;28;20439;-84
2021/04/29 12:46:00;;;;;;;24.50;22.23;;;;;;;;;;5094282;28;20353;-84
2021/04/29 12:48:28;;;;;;;24.20;21.90;;;;;;;;;;5075532;28;20365;-84
2021/04/29 12:51:14;;;;;;;23.63;21.33;;;;;;;;;;5075286;28;20376;-83
2021/04/29 12:53:42;;;;;;;20.98;19.17;;;;;;;;;;5093626;28;20356;-85
2021/04/29 12:56:09;;;;;;;19.77;17.77;;;;;;;;;;5075231;28;20385;-85
2021/04/29 12:58:38;;;;;;;19.00;17.13;;;;;;;;;;5093028;28;20368;-83
2021/04/29 13:01:11;;;;;;;19.00;17.20;;;;;;;;;;5093728;28;20368;-83
2021/04/29 13:03:39;;;;;;;18.23;16.48;;;;;;;;;;5092486;28;21007;-83
2021/04/29 13:06:07;;;;;;;17.90;16.10;;;;;;;;;;5092045;28;20361;-89
2021/04/29 13:08:51;;;;;;;18.42;16.77;;;;;;;;;;5058087;28;20910;-84
2021/04/29 13:11:31;;;;;;;18.60;16.77;;;;;;;;;;5075958;28;20368;-83
2021/04/29 13:14:08;;;;;;;17.63;16.13;;;;;;;;;;5093039;28;20368;-83
2021/04/29 13:16:38;;;;;;;15.93;14.50;;;;;;;;;;5076351;28;20451;-84
2021/04/29 13:19:04;;;;;;;14.63;12.70;;;;;;;;;;5076309;28;20490;-84
2021/04/29 13:21:31;;;;;;;14.13;12.73;;;;;;;;;;5075835;28;20375;-83
2021/04/29 13:23:57;;;;;;;14.10;12.70;;;;;;;;;;5074929;28;20388;-83
2021/04/29 13:26:23;;;;;;;12.93;11.70;;;;;;;;;;5073806;28;20396;-82
2021/04/29 13:28:50;;;;;;;11.35;10.15;;;;;;;;;;5092699;28;20365;-82
2021/04/29 13:31:16;;;;;;;11.02;9.95;;;;;;;;;;5092556;28;20364;-82
2021/04/29 13:33:42;;;;;;;11.27;10.10;;;;;;;;;;5074255;28;20898;-83
2021/04/29 13:36:09;;;;;;;10.95;9.82;;;;;;;;;;5073711;28;20943;-82
2021/04/29 13:38:35;;;;;;;11.00;10.00;;;;;;;;;;5089277;28;20420;-82
2021/04/29 13:41:01;;;;;;;11.57;10.45;;;;;;;;;;5089609;28;20368;-82
2021/04/29 13:43:27;;;;;;;11.00;9.80;;;;;;;;;;5073408;28;20404;-82
2021/04/29 13:45:53;;;;;;;11.25;10.10;;;;;;;;;;5091412;28;20368;-82
2021/04/29 13:48:19;;;;;;;10.52;9.50;;;;;;;;;;5091038;28;20910;-82
2021/04/29 13:50:46;;;;;;;10.48;9.38;;;;;;;;;;5092115;28;20357;-83
2021/04/29 13:53:12;;;;;;;10.68;9.63;;;;;;;;;;5092103;28;20449;-82
2021/04/29 13:55:38;;;;;;;11.32;9.73;;;;;;;;;;5091928;28;20357;-81
2021/04/29 13:58:04;;;;;;;11.15;10.05;;;;;;;;;;5092273;28;20365;-82
2021/04/29 14:00:31;;;;;;;10.63;9.52;;;;;;;;;;5091574;28;20377;-83
2021/04/29 14:02:57;;;;;;;12.38;10.52;;;;;;;;;;5088842;28;20376;-82
2021/04/29 14:05:23;;;;;;;12.27;11.07;;;;;;;;;;5090239;28;20442;-82
2021/04/29 14:07:49;;;;;;;11.70;10.60;;;;;;;;;;5091366;28;20383;-82
2021/04/29 14:10:15;;;;;;;12.40;11.10;;;;;;;;;;5092354;28;20364;-82
2021/04/29 14:12:41;;;;;;;11.83;10.67;;;;;;;;;;5091487;28;20890;-83
2021/04/29 14:15:07;;;;;;;11.70;10.53;;;;;;;;;;5091587;28;20430;-82
2021/04/29 14:17:33;;;;;;;11.60;10.50;;;;;;;;;;5091345;28;20380;-82